DK-0031 weather

Nordjyllands Ultra Light Flyveklub
North Jutland, Denmark

Public forecast

Using degrees Celsius for public forecast. Weather courtesy of forecast.io.

Closest aviation weather report (METAR) to Nordjyllands Ultra Light Flyveklub

Closest report is Aalborg Airport, 9.8 nm (18.1 km) SSW. Retrieved 2019/10/18 13:20 UTC (0 seconds ago):

EKYT 181320Z AUTO 10009KT 9999 FEW006/// SCT017/// BKN020/// 12/11 Q1002

Closest aviation forecast (TAF) to Nordjyllands Ultra Light Flyveklub

Closest forecast is Aalborg Airport, 9.8 nm (18.1 km) SSW. Retrieved 2019/10/18 12:31 UTC (45 minutes ago):

TAF EKYT 181122Z 1812/1912 14010KT 9999 FEW015 BKN050 TEMPO 1812/1816 6000 -SHRA BKN012TCU TEMPO 1816/1821 4000 TSRA BKN008 BKN020 BECMG 1818/1821 19015KT TEMPO 1821/1909 4000 -SHRA BKN008 BKN020CB